Terminal Aerodrome Forecast
Issued by NWS Lake Charles, LA

Home | Current Version | Previous Version | Text Only | Print | Product List | Glossary On
Versions: 1 2 3 4 5 6 7 8 9 10 11 12 13 14 15 16 17 18 19 20 21 22 23 24 25 26 27 28 29 30 31 32 33
643
FTUS44 KLCH 220916 AAC
TAFAEX
TAF AMD
KAEX 220916Z 2209/2306 35005KT P6SM OVC015
      TEMPO 2209/2213 4SM BR BKN008
     FM221500 35005KT P6SM SCT025
     FM221800 35005KT P6SM FEW025=

USA.gov is the U.S. government's official web portal to all federal, state and local government web resources and services.